Time;durP1;ratioP1;P1;durP2;ratioP2;P2;SDS_P1;SDS_P2;PMS_P1;PMS_P2;Temp;Humidity;BMP_temperature;BMP_pressure;BME280_temperature;BME280_humidity;BME280_pressure;Samples;Min_cycle;Max_cycle;Signal;HPM_P1;HPM_P2
2023/02/09 00:00:55;;;;;;;1.27;1.23;;;0.40;99.90;;;;;;5033572;28;20434;-80
2023/02/09 00:03:21;;;;;;;2.07;1.97;;;0.40;99.90;;;;;;5049724;28;20189;-79
2023/02/09 00:05:46;;;;;;;4.00;2.83;;;0.30;99.90;;;;;;5033209;28;20638;-81
2023/02/09 00:08:12;;;;;;;1.43;1.33;;;0.30;99.90;;;;;;5033222;28;20181;-80
2023/02/09 00:10:38;;;;;;;0.63;0.63;;;0.30;99.90;;;;;;5049558;28;20446;-80
2023/02/09 00:13:22;;;;;;;0.80;0.80;;;0.40;99.90;;;;;;5067384;28;20318;-79
2023/02/09 00:15:55;;;;;;;2.77;1.80;;;0.30;99.90;;;;;;5052325;28;20177;-80
2023/02/09 00:18:22;;;;;;;2.53;2.43;;;0.40;99.90;;;;;;5049794;28;20229;-80
2023/02/09 00:21:05;;;;;;;1.93;1.83;;;0.40;99.90;;;;;;5032837;28;20182;-82
2023/02/09 00:23:33;;;;;;;1.63;1.53;;;0.40;99.90;;;;;;5049673;28;20219;-81
2023/02/09 00:26:01;;;;;;;0.87;0.87;;;0.40;99.90;;;;;;5049435;28;20225;-80
2023/02/09 00:28:27;;;;;;;1.93;1.83;;;0.40;99.90;;;;;;5049770;28;20182;-81
2023/02/09 00:30:53;;;;;;;1.23;1.23;;;0.40;99.90;;;;;;5049716;28;20439;-82
2023/02/09 00:33:18;;;;;;;0.60;0.60;;;0.40;99.90;;;;;;5035440;28;20292;-79
2023/02/09 00:35:44;;;;;;;1.27;1.27;;;0.30;99.90;;;;;;5053404;28;20213;-80
2023/02/09 00:38:11;;;;;;;1.20;1.20;;;0.30;99.90;;;;;;5053639;28;20192;-83
2023/02/09 00:40:38;;;;;;;0.90;0.90;;;0.20;99.90;;;;;;5071226;28;20208;-80
2023/02/09 00:43:04;;;;;;;1.87;1.77;;;0.20;99.90;;;;;;5053458;28;20174;-80
2023/02/09 00:45:30;;;;;;;1.37;1.33;;;0.20;99.90;;;;;;5053216;28;20181;-80
2023/02/09 00:47:57;;;;;;;1.80;1.70;;;0.10;99.90;;;;;;5020087;28;20185;-83
2023/02/09 00:50:23;;;;;;;1.87;1.70;;;0.20;99.90;;;;;;5053177;28;20174;-83
2023/02/09 00:52:49;;;;;;;1.63;1.53;;;0.20;99.90;;;;;;5053660;28;20178;-81
2023/02/09 00:55:15;;;;;;;0.67;0.67;;;0.20;99.90;;;;;;5020197;28;20653;-80
2023/02/09 00:57:41;;;;;;;0.97;0.97;;;0.20;99.90;;;;;;5071183;28;20193;-81
2023/02/09 01:00:08;;;;;;;3.37;1.90;;;0.20;99.90;;;;;;5053171;28;20182;-80
2023/02/09 01:02:34;;;;;;;1.43;1.43;;;0.20;99.90;;;;;;5036445;28;20643;-81
2023/02/09 01:05:00;;;;;;;1.10;1.10;;;0.20;99.90;;;;;;5053066;28;20369;-80
2023/02/09 01:07:26;;;;;;;9.60;1.73;;;0.30;99.90;;;;;;5036563;28;20188;-81
2023/02/09 01:09:51;;;;;;;1.23;0.90;;;0.30;99.90;;;;;;5052982;28;20185;-82
2023/02/09 01:12:17;;;;;;;0.97;0.97;;;0.30;99.90;;;;;;5036115;28;20205;-80
2023/02/09 01:14:43;;;;;;;1.20;1.20;;;0.30;99.90;;;;;;5036150;28;20201;-80
2023/02/09 01:17:09;;;;;;;1.03;1.03;;;0.30;99.90;;;;;;5053111;28;20170;-80
2023/02/09 01:19:35;;;;;;;1.83;1.63;;;0.30;99.90;;;;;;5035943;28;20697;-80
2023/02/09 01:22:01;;;;;;;1.57;1.47;;;0.30;99.90;;;;;;5070820;28;20319;-82
2023/02/09 01:24:27;;;;;;;2.00;1.90;;;0.30;99.90;;;;;;5070517;28;20662;-80
2023/02/09 01:26:52;;;;;;;0.50;0.50;;;0.20;99.90;;;;;;5036122;28;20181;-79
2023/02/09 01:29:19;;;;;;;1.43;1.37;;;0.20;99.90;;;;;;5052636;28;20181;-80
2023/02/09 01:31:45;;;;;;;2.87;1.83;;;0.30;99.90;;;;;;5052330;28;20179;-79
2023/02/09 01:34:13;;;;;;;1.40;1.23;;;0.20;99.90;;;;;;5052354;28;20213;-81
2023/02/09 01:36:38;;;;;;;1.27;1.27;;;0.20;99.90;;;;;;5070103;28;20180;-84
2023/02/09 01:39:04;;;;;;;1.00;1.00;;;0.20;99.90;;;;;;5052251;28;20276;-81
2023/02/09 01:41:32;;;;;;;2.30;1.73;;;0.30;99.90;;;;;;5052026;28;20209;-80
2023/02/09 01:44:05;;;;;;;1.97;1.87;;;0.40;99.90;;;;;;5069486;28;20594;-79
2023/02/09 01:46:34;;;;;;;0.63;0.63;;;0.50;99.90;;;;;;5052070;28;20169;-81
2023/02/09 01:49:08;;;;;;;0.67;0.67;;;0.60;99.90;;;;;;5052091;28;20250;-80
2023/02/09 01:51:41;;;;;;;1.93;1.83;;;0.60;99.90;;;;;;5052020;28;20768;-81
2023/02/09 01:54:27;;;;;;;0.60;0.60;;;0.60;99.90;;;;;;5051895;28;20659;-83
2023/02/09 01:57:01;;;;;;;0.90;0.70;;;0.70;99.90;;;;;;5069995;28;20177;-81
2023/02/09 01:59:28;;;;;;;1.17;1.13;;;0.70;99.90;;;;;;5069705;28;20172;-80
2023/02/09 02:01:53;;;;;;;1.40;1.33;;;0.70;99.90;;;;;;5051788;28;20181;-83
2023/02/09 02:04:20;;;;;;;1.50;1.40;;;0.70;99.90;;;;;;5069899;28;20186;-80
2023/02/09 02:06:47;;;;;;;0.93;0.93;;;0.80;99.90;;;;;;5051534;28;20588;-83
2023/02/09 02:09:15;;;;;;;2.57;2.17;;;0.80;99.90;;;;;;5035595;28;20178;-79
2023/02/09 02:11:45;;;;;;;1.27;1.27;;;0.70;99.90;;;;;;5051583;28;20647;-80
2023/02/09 02:14:30;;;;;;;0.90;0.90;;;0.70;99.90;;;;;;5051511;28;20691;-80
2023/02/09 02:17:05;;;;;;;1.13;1.13;;;0.60;99.90;;;;;;5069574;28;20196;-81
2023/02/09 02:19:46;;;;;;;2.80;2.57;;;0.60;99.90;;;;;;5051854;28;20181;-83
2023/02/09 02:22:43;;;;;;;4.17;0.80;;;0.60;99.90;;;;;;5051603;28;20173;-79
2023/02/09 02:25:19;;;;;;;2.53;2.43;;;0.60;99.90;;;;;;5051500;28;20244;-80
2023/02/09 02:28:10;;;;;;;0.80;0.80;;;0.60;99.90;;;;;;5051362;28;20658;-80
2023/02/09 02:31:08;;;;;;;5.03;1.70;;;0.70;99.90;;;;;;5051329;28;20335;-80
2023/02/09 02:34:01;;;;;;;1.53;1.50;;;0.70;99.90;;;;;;5051324;28;20214;-80
2023/02/09 02:36:59;;;;;;;1.27;1.17;;;0.70;99.90;;;;;;5069330;28;20180;-80
2023/02/09 02:39:37;;;;;;;3.20;1.50;;;0.70;99.90;;;;;;5069010;28;20721;-81
2023/02/09 02:45:19;;;;;;;0.83;0.83;;;0.80;99.90;;;;;;5068793;28;20646;-83
2023/02/09 02:47:52;;;;;;;1.30;1.30;;;0.80;99.90;;;;;;5068802;28;20203;-80
2023/02/09 02:50:24;;;;;;;1.43;1.33;;;0.80;99.90;;;;;;5051295;28;20173;-79
2023/02/09 02:52:55;;;;;;;1.47;1.47;;;0.80;99.90;;;;;;5050903;28;20176;-80
2023/02/09 02:55:24;;;;;;;1.93;1.83;;;0.90;99.90;;;;;;5068488;28;20248;-81
2023/02/09 02:57:54;;;;;;;1.40;1.40;;;0.90;99.90;;;;;;5068291;28;20268;-79
2023/02/09 03:00:32;;;;;;;2.00;1.90;;;0.90;99.90;;;;;;5050556;28;20623;-83
2023/02/09 03:03:04;;;;;;;2.73;2.63;;;0.90;99.90;;;;;;5050702;28;20197;-80
2023/02/09 03:05:31;;;;;;;0.93;0.93;;;0.90;99.90;;;;;;5050583;28;20560;-80
2023/02/09 03:07:56;;;;;;;0.57;0.57;;;0.90;99.90;;;;;;5050722;28;20209;-79
2023/02/09 03:10:31;;;;;;;2.00;1.90;;;0.90;99.90;;;;;;5034118;28;20223;-80
2023/02/09 03:12:57;;;;;;;1.37;1.37;;;0.90;99.90;;;;;;5068171;28;20282;-80
2023/02/09 03:15:41;;;;;;;1.50;1.43;;;0.90;99.90;;;;;;5068426;28;20655;-80
2023/02/09 03:18:09;;;;;;;3.10;2.90;;;0.90;99.90;;;;;;5050775;28;20626;-79
2023/02/09 03:20:48;;;;;;;0.87;0.67;;;0.90;99.90;;;;;;5050503;28;20239;-84
2023/02/09 03:23:25;;;;;;;1.03;1.03;;;0.80;99.90;;;;;;5050578;28;20394;-82
2023/02/09 03:25:55;;;;;;;0.90;0.90;;;0.80;99.90;;;;;;5050064;28;20161;-81
2023/02/09 03:28:30;;;;;;;1.10;0.83;;;0.90;99.90;;;;;;5068052;28;20181;-82
2023/02/09 03:30:57;;;;;;;1.07;1.07;;;0.80;99.90;;;;;;5067706;28;20189;-81
2023/02/09 03:33:27;;;;;;;1.10;0.80;;;0.80;99.90;;;;;;5017331;28;20209;-80
2023/02/09 03:35:59;;;;;;;1.73;1.63;;;0.80;99.90;;;;;;5050072;28;20174;-80
2023/02/09 03:38:28;;;;;;;2.00;1.57;;;0.80;99.90;;;;;;5050791;28;20210;-80
2023/02/09 03:40:54;;;;;;;1.77;1.67;;;0.90;99.90;;;;;;5050102;28;20224;-79
2023/02/09 03:44:25;;;;;;;1.67;1.57;;;0.80;99.90;;;;;;5049790;28;20590;-82
2023/02/09 03:46:05;;;;;;;0.83;0.80;;;0.80;99.90;;;;;;5053149;28;20815;-80
2023/02/09 03:48:31;;;;;;;2.37;2.03;;;0.80;99.90;;;;;;5033344;28;20177;-79
2023/02/09 03:50:59;;;;;;;2.77;1.13;;;0.80;99.90;;;;;;5049701;28;20189;-80
2023/02/09 03:53:25;;;;;;;1.97;0.93;;;0.80;99.90;;;;;;5067666;28;20214;-80
2023/02/09 03:55:51;;;;;;;1.70;1.53;;;0.80;99.90;;;;;;5067800;28;20200;-80
2023/02/09 03:58:16;;;;;;;0.80;0.80;;;0.80;99.90;;;;;;5016997;28;20212;-79
2023/02/09 04:00:42;;;;;;;3.03;2.07;;;0.90;99.90;;;;;;5033188;28;20193;-80
2023/02/09 04:03:08;;;;;;;0.83;0.83;;;0.90;99.90;;;;;;5033501;28;20213;-83
2023/02/09 04:05:33;;;;;;;0.80;0.80;;;0.90;99.90;;;;;;5033362;28;20215;-80
2023/02/09 04:07:59;;;;;;;1.03;0.97;;;0.90;99.90;;;;;;5053703;28;20199;-82
2023/02/09 04:10:25;;;;;;;1.57;1.47;;;0.90;99.90;;;;;;5056822;28;20183;-80
2023/02/09 04:12:51;;;;;;;1.20;1.20;;;0.90;99.90;;;;;;5056007;28;20233;-80
2023/02/09 04:15:16;;;;;;;1.93;1.80;;;0.90;99.90;;;;;;5056195;28;20189;-80
2023/02/09 04:17:42;;;;;;;2.83;2.63;;;0.90;99.90;;;;;;5023031;28;20184;-80
2023/02/09 04:20:08;;;;;;;1.10;1.10;;;0.90;99.90;;;;;;5056211;28;20255;-80
2023/02/09 04:22:34;;;;;;;5.90;2.70;;;0.90;99.90;;;;;;5039545;28;20307;-80
2023/02/09 04:24:59;;;;;;;1.93;1.83;;;0.80;99.90;;;;;;5023387;28;20188;-80
2023/02/09 04:27:27;;;;;;;2.17;2.07;;;0.80;99.90;;;;;;5039807;28;20247;-79
2023/02/09 04:29:52;;;;;;;1.13;1.10;;;0.80;99.90;;;;;;5056037;28;20281;-80
2023/02/09 04:32:18;;;;;;;1.20;1.20;;;0.80;99.90;;;;;;5039525;28;20264;-81
2023/02/09 04:34:44;;;;;;;1.03;1.03;;;0.80;99.90;;;;;;5055946;28;20254;-82
2023/02/09 04:37:10;;;;;;;1.23;1.23;;;0.70;99.90;;;;;;5023142;28;20185;-82
2023/02/09 04:39:35;;;;;;;1.77;1.67;;;0.70;99.90;;;;;;5074405;28;20280;-80
2023/02/09 04:42:01;;;;;;;4.97;1.63;;;0.70;99.90;;;;;;5039763;28;20247;-79
2023/02/09 04:44:27;;;;;;;1.03;1.03;;;0.70;99.90;;;;;;5039759;28;20699;-80
2023/02/09 04:46:52;;;;;;;3.47;1.87;;;0.60;99.90;;;;;;5073866;28;20692;-80
2023/02/09 04:49:18;;;;;;;2.80;2.07;;;0.60;99.90;;;;;;5039549;28;20181;-80
2023/02/09 04:51:44;;;;;;;1.00;1.00;;;0.60;99.90;;;;;;5055845;28;20185;-80
2023/02/09 04:54:10;;;;;;;1.30;1.30;;;0.60;99.90;;;;;;5022603;28;20209;-79
2023/02/09 04:56:35;;;;;;;1.53;1.43;;;0.60;99.90;;;;;;5039293;28;20185;-82
2023/02/09 05:01:45;;;;;;;3.00;2.80;;;0.60;99.90;;;;;;5058506;28;20694;-82
2023/02/09 05:04:11;;;;;;;2.20;1.93;;;0.60;99.90;;;;;;5055991;28;20273;-79
2023/02/09 05:06:36;;;;;;;3.70;2.70;;;0.60;99.90;;;;;;5022816;28;20563;-80
2023/02/09 05:09:02;;;;;;;1.63;1.13;;;0.50;99.90;;;;;;5055989;28;20619;-82
2023/02/09 05:11:28;;;;;;;1.93;1.83;;;0.50;99.90;;;;;;5039409;28;20182;-80
2023/02/09 05:13:54;;;;;;;2.27;1.90;;;0.50;99.90;;;;;;5073224;28;20486;-80
2023/02/09 05:16:20;;;;;;;1.73;1.63;;;0.50;99.90;;;;;;5055959;28;20606;-80
2023/02/09 05:18:46;;;;;;;0.80;0.80;;;0.60;99.90;;;;;;5053670;28;20188;-79
2023/02/09 05:21:13;;;;;;;3.47;1.63;;;0.60;99.90;;;;;;5036131;28;20201;-79
2023/02/09 05:23:39;;;;;;;2.33;2.13;;;0.60;99.90;;;;;;5070945;28;20651;-79
2023/02/09 05:26:04;;;;;;;2.77;2.57;;;0.70;99.90;;;;;;5052422;28;20212;-80
2023/02/09 05:28:30;;;;;;;1.67;1.53;;;0.70;99.90;;;;;;5052709;28;20185;-81
2023/02/09 05:30:56;;;;;;;2.03;1.93;;;0.80;99.90;;;;;;5019255;28;20189;-80
2023/02/09 05:33:23;;;;;;;1.53;1.43;;;0.80;99.90;;;;;;5035927;28;20216;-79
2023/02/09 05:35:51;;;;;;;2.60;2.40;;;0.80;99.90;;;;;;5052805;28;20273;-79
2023/02/09 05:38:17;;;;;;;1.83;1.40;;;0.80;99.90;;;;;;5070110;28;20203;-79
2023/02/09 05:40:46;;;;;;;2.80;1.93;;;0.90;99.90;;;;;;5052403;28;20658;-80
2023/02/09 05:43:12;;;;;;;1.77;1.67;;;0.80;99.90;;;;;;5070548;28;20276;-80
2023/02/09 05:45:38;;;;;;;1.50;1.13;;;0.90;99.90;;;;;;5052984;28;20320;-79
2023/02/09 05:48:04;;;;;;;3.27;3.07;;;0.80;99.90;;;;;;5052715;28;20174;-78
2023/02/09 05:50:29;;;;;;;1.77;1.77;;;0.90;99.90;;;;;;5070428;28;20182;-82
2023/02/09 05:52:58;;;;;;;3.90;3.60;;;0.90;99.90;;;;;;5019350;28;20635;-82
2023/02/09 05:55:23;;;;;;;2.40;2.20;;;0.80;99.90;;;;;;5052580;28;20646;-79
2023/02/09 05:57:49;;;;;;;1.37;1.37;;;0.80;99.90;;;;;;5019406;28;20262;-81
2023/02/09 06:00:18;;;;;;;1.13;1.13;;;0.90;99.90;;;;;;5035441;28;20181;-83
2023/02/09 06:02:44;;;;;;;2.93;2.73;;;0.90;99.90;;;;;;5036087;28;20275;-82
2023/02/09 06:05:09;;;;;;;2.10;1.87;;;0.90;99.90;;;;;;5035827;28;20685;-85
2023/02/09 06:07:35;;;;;;;1.20;1.20;;;0.90;99.90;;;;;;5035715;28;20178;-79
2023/02/09 06:10:01;;;;;;;1.07;1.07;;;0.80;99.90;;;;;;5035379;28;20208;-81
2023/02/09 06:12:27;;;;;;;4.00;1.70;;;0.90;99.90;;;;;;5035285;28;20181;-84
2023/02/09 06:14:52;;;;;;;3.07;2.13;;;0.80;99.90;;;;;;5035202;28;20213;-83
2023/02/09 06:17:18;;;;;;;3.43;2.40;;;0.90;99.90;;;;;;5035315;28;20178;-80
2023/02/09 06:19:44;;;;;;;1.80;1.70;;;0.80;99.90;;;;;;5035230;28;20185;-80
2023/02/09 06:22:09;;;;;;;3.83;3.47;;;0.90;99.90;;;;;;5052040;28;20192;-79
2023/02/09 06:24:35;;;;;;;1.40;1.30;;;0.90;99.90;;;;;;5051741;28;20325;-79
2023/02/09 06:27:01;;;;;;;2.10;2.00;;;0.90;99.90;;;;;;5069703;28;20177;-79
2023/02/09 06:29:26;;;;;;;3.53;3.27;;;1.00;99.90;;;;;;5051864;28;20303;-80
2023/02/09 06:31:52;;;;;;;3.27;2.80;;;0.90;99.90;;;;;;5018554;28;20212;-79
2023/02/09 06:34:21;;;;;;;1.87;1.70;;;0.90;99.90;;;;;;5018675;28;20270;-84
2023/02/09 06:36:47;;;;;;;3.73;2.10;;;1.00;99.90;;;;;;5035285;28;20715;-81
2023/02/09 06:39:12;;;;;;;2.40;2.20;;;1.00;99.90;;;;;;5035098;28;20272;-80
2023/02/09 06:41:38;;;;;;;3.20;2.13;;;1.00;99.90;;;;;;5051515;28;20231;-83
2023/02/09 06:44:04;;;;;;;3.17;2.97;;;1.00;99.90;;;;;;5051316;28;20546;-80
2023/02/09 06:46:30;;;;;;;2.83;2.50;;;1.00;99.90;;;;;;5035112;28;20706;-81
2023/02/09 06:48:56;;;;;;;3.17;2.87;;;1.00;99.90;;;;;;5035114;28;20354;-80
2023/02/09 06:51:21;;;;;;;5.77;4.03;;;1.10;99.90;;;;;;5051399;28;20181;-81
2023/02/09 06:53:47;;;;;;;2.87;2.73;;;1.20;99.90;;;;;;5051154;28;20290;-81
2023/02/09 06:56:13;;;;;;;2.60;2.43;;;1.20;99.90;;;;;;5051665;28;20235;-82
2023/02/09 06:58:40;;;;;;;1.67;1.63;;;1.20;99.90;;;;;;5051384;28;20664;-80
2023/02/09 07:01:11;;;;;;;2.10;2.00;;;1.20;99.90;;;;;;5068989;28;20310;-80
2023/02/09 07:03:37;;;;;;;2.10;2.00;;;1.20;99.90;;;;;;5051057;28;20185;-85
2023/02/09 07:06:11;;;;;;;2.50;2.30;;;1.30;99.90;;;;;;5069137;28;20184;-80
2023/02/09 07:08:38;;;;;;;3.10;2.90;;;1.30;99.90;;;;;;5051264;28;20162;-80
2023/02/09 07:11:07;;;;;;;3.97;2.93;;;1.30;99.90;;;;;;5050799;28;20537;-80
2023/02/09 07:13:33;;;;;;;1.80;1.47;;;1.30;99.90;;;;;;5050474;28;20694;-81
2023/02/09 07:16:01;;;;;;;3.17;1.67;;;1.30;99.90;;;;;;5051211;28;20235;-86
2023/02/09 07:18:27;;;;;;;1.67;1.53;;;1.40;99.90;;;;;;5034631;28;20227;-89
2023/02/09 07:20:55;;;;;;;11.07;2.00;;;1.40;99.90;;;;;;5017718;28;20169;-84
2023/02/09 07:23:21;;;;;;;5.57;2.67;;;1.40;99.90;;;;;;5068870;28;20405;-82
2023/02/09 07:25:46;;;;;;;1.80;1.70;;;1.50;99.90;;;;;;5050815;28;20196;-84
2023/02/09 07:28:13;;;;;;;2.27;2.10;;;1.60;99.90;;;;;;5034678;28;20177;-88
2023/02/09 07:30:40;;;;;;;3.03;1.97;;;1.70;99.90;;;;;;5017887;28;20177;-87
2023/02/09 07:33:07;;;;;;;2.47;2.30;;;1.80;99.90;;;;;;5068358;28;20677;-82
2023/02/09 07:35:33;;;;;;;8.23;7.63;;;1.90;99.90;;;;;;5034440;28;20173;-83
2023/02/09 07:37:58;;;;;;;1.90;1.80;;;1.90;99.90;;;;;;5050392;28;20184;-84
2023/02/09 07:40:24;;;;;;;1.73;1.63;;;2.00;99.90;;;;;;5051019;28;20230;-82
2023/02/09 07:42:51;;;;;;;1.97;1.87;;;2.10;99.90;;;;;;5050068;28;20197;-90
2023/02/09 07:45:17;;;;;;;1.63;1.53;;;2.10;99.90;;;;;;5050482;28;20192;-82
2023/02/09 07:47:42;;;;;;;0.77;0.77;;;2.20;99.90;;;;;;5034267;28;20185;-83
2023/02/09 07:50:08;;;;;;;3.43;2.63;;;2.20;99.90;;;;;;5034219;28;20515;-82
2023/02/09 07:52:34;;;;;;;5.80;3.10;;;2.20;99.90;;;;;;5050850;28;20209;-89
2023/02/09 07:55:00;;;;;;;3.23;3.03;;;2.20;99.90;;;;;;5068710;28;20420;-81
2023/02/09 07:57:28;;;;;;;3.23;3.03;;;2.30;99.90;;;;;;5034130;28;20229;-85
2023/02/09 07:59:54;;;;;;;2.57;2.37;;;2.30;99.90;;;;;;5050233;28;20185;-81
2023/02/09 08:02:50;;;;;;;1.90;1.80;;;2.30;99.90;;;;;;5050689;28;20186;-86
2023/02/09 08:05:30;;;;;;;8.87;2.83;;;2.40;99.90;;;;;;5029141;28;20189;-83
2023/02/09 08:07:56;;;;;;;1.87;1.67;;;2.50;99.90;;;;;;5050702;28;20169;-85
2023/02/09 08:10:22;;;;;;;2.83;2.37;;;2.50;99.90;;;;;;5050386;28;20231;-91
2023/02/09 08:13:02;;;;;;;1.93;1.83;;;2.50;99.90;;;;;;5030780;28;20250;-82
2023/02/09 08:15:37;;;;;;;2.83;2.67;;;2.50;99.90;;;;;;5048322;28;20178;-82
2023/02/09 08:18:09;;;;;;;5.93;4.00;;;2.60;99.90;;;;;;5046708;28;20158;-85
2023/02/09 08:20:35;;;;;;;2.90;2.57;;;2.70;99.90;;;;;;5047003;28;20173;-84
2023/02/09 08:23:09;;;;;;;3.77;3.47;;;2.80;99.90;;;;;;5030637;28;20722;-81
2023/02/09 08:25:35;;;;;;;18.03;2.73;;;2.80;99.90;;;;;;5048426;28;20687;-81
2023/02/09 08:28:03;;;;;;;4.77;2.37;;;2.90;99.90;;;;;;5030595;28;20174;-82
2023/02/09 08:30:29;;;;;;;2.47;2.27;;;2.90;99.90;;;;;;5030114;28;20182;-91
2023/02/09 08:32:54;;;;;;;6.13;2.70;;;2.90;99.90;;;;;;5046971;28;20472;-81
2023/02/09 08:35:20;;;;;;;1.33;1.23;;;2.90;99.90;;;;;;5048348;28;20683;-89
2023/02/09 08:37:46;;;;;;;3.70;2.83;;;2.90;99.90;;;;;;5031548;28;20205;-83
2023/02/09 08:40:13;;;;;;;2.97;2.17;;;2.90;99.90;;;;;;5048031;28;20174;-90
2023/02/09 08:42:39;;;;;;;2.50;2.30;;;2.90;99.90;;;;;;5047912;28;20175;-91
2023/02/09 08:45:05;;;;;;;1.00;1.00;;;2.90;99.90;;;;;;5048307;28;20212;-83
2023/02/09 08:47:31;;;;;;;4.37;3.07;;;2.90;99.90;;;;;;5049699;28;20178;-83
2023/02/09 08:49:58;;;;;;;5.20;2.83;;;2.90;99.90;;;;;;5031013;28;20178;-83
2023/02/09 08:52:24;;;;;;;3.23;2.30;;;2.90;99.90;;;;;;5048167;28;20178;-86
2023/02/09 08:54:49;;;;;;;8.43;2.60;;;2.90;99.90;;;;;;5048339;28;20209;-81
2023/02/09 08:57:15;;;;;;;6.63;2.53;;;3.00;99.90;;;;;;5050357;28;20682;-85
2023/02/09 08:59:41;;;;;;;3.73;2.53;;;3.00;99.90;;;;;;5017555;28;20197;-81
2023/02/09 09:02:06;;;;;;;2.57;1.47;;;3.00;99.90;;;;;;5017167;28;20663;-87
2023/02/09 09:04:32;;;;;;;3.97;3.67;;;3.00;99.90;;;;;;5050059;28;20190;-83
2023/02/09 09:06:58;;;;;;;6.23;5.20;;;3.00;99.90;;;;;;5033990;28;20186;-83
2023/02/09 09:09:24;;;;;;;7.07;4.50;;;3.10;99.90;;;;;;5033983;28;20201;-81
2023/02/09 09:11:49;;;;;;;6.40;5.67;;;3.10;99.90;;;;;;5050371;28;20323;-83
2023/02/09 09:14:15;;;;;;;2.67;2.47;;;3.20;99.90;;;;;;5049816;28;20238;-82
2023/02/09 09:16:41;;;;;;;14.20;7.57;;;3.20;99.90;;;;;;5050024;28;20189;-86
2023/02/09 09:19:07;;;;;;;3.37;3.10;;;3.20;99.90;;;;;;5033390;28;20189;-81
2023/02/09 09:21:33;;;;;;;16.50;10.13;;;3.30;99.90;;;;;;5033222;28;20182;-86
2023/02/09 09:23:58;;;;;;;10.40;7.27;;;3.30;99.90;;;;;;5033341;28;20188;-81
2023/02/09 09:26:24;;;;;;;4.13;2.70;;;3.30;99.90;;;;;;5033218;28;20723;-83
2023/02/09 09:28:50;;;;;;;3.07;2.87;;;3.30;99.90;;;;;;5017132;28;20224;-82
2023/02/09 09:31:19;;;;;;;2.80;2.60;;;3.30;99.90;;;;;;5049680;28;20186;-83
2023/02/09 09:33:45;;;;;;;2.20;2.07;;;3.40;99.90;;;;;;5033284;28;20237;-84
2023/02/09 09:36:13;;;;;;;3.43;3.13;;;3.40;99.90;;;;;;5050782;28;20201;-82
2023/02/09 09:38:39;;;;;;;3.37;3.00;;;3.40;99.90;;;;;;5049504;28;20187;-84
2023/02/09 09:41:23;;;;;;;4.10;3.80;;;3.50;99.90;;;;;;5049442;28;20189;-90
2023/02/09 09:43:49;;;;;;;3.03;2.47;;;3.50;99.90;;;;;;5049458;28;20170;-82
2023/02/09 09:46:22;;;;;;;2.60;2.30;;;3.50;99.90;;;;;;5050912;28;20182;-83
2023/02/09 09:48:54;;;;;;;3.80;3.10;;;3.60;99.90;;;;;;5049451;28;20174;-87
2023/02/09 09:51:33;;;;;;;3.63;1.97;;;3.60;99.90;;;;;;5050894;28;20185;-83
2023/02/09 09:54:02;;;;;;;3.53;3.17;;;3.60;99.90;;;;;;5049131;28;20209;-86
2023/02/09 09:56:30;;;;;;;2.70;2.53;;;3.70;99.90;;;;;;5050543;28;20561;-82
2023/02/09 09:58:57;;;;;;;4.17;3.17;;;3.70;99.90;;;;;;5032757;28;20227;-88
2023/02/09 10:01:27;;;;;;;2.73;2.60;;;3.70;99.90;;;;;;5049510;28;20179;-82
2023/02/09 10:03:59;;;;;;;2.73;2.47;;;3.80;99.90;;;;;;5049356;28;20217;-83
2023/02/09 10:06:30;;;;;;;6.73;3.27;;;3.90;99.90;;;;;;5048573;28;20170;-82
2023/02/09 10:09:03;;;;;;;5.27;3.23;;;4.00;99.90;;;;;;5032193;28;20167;-84
2023/02/09 10:12:01;;;;;;;3.57;3.23;;;4.00;99.90;;;;;;5050489;28;20190;-82
2023/02/09 10:14:29;;;;;;;4.03;3.67;;;4.10;99.90;;;;;;5048888;28;20238;-85
2023/02/09 10:16:54;;;;;;;6.70;3.47;;;4.10;99.90;;;;;;5032739;28;20193;-85
2023/02/09 10:19:24;;;;;;;3.20;2.93;;;4.20;99.90;;;;;;5049117;28;20182;-82
2023/02/09 10:21:51;;;;;;;1.37;1.33;;;4.10;99.90;;;;;;5050197;28;20204;-84
2023/02/09 10:24:21;;;;;;;8.87;4.50;;;4.10;99.90;;;;;;5049697;28;20189;-87
2023/02/09 10:27:07;;;;;;;1.87;1.77;;;4.10;99.90;;;;;;5050125;28;20674;-86
2023/02/09 10:29:34;;;;;;;3.63;2.77;;;4.10;99.90;;;;;;5048443;28;20357;-81
2023/02/09 10:32:04;;;;;;;6.07;5.20;;;4.10;99.90;;;;;;5032131;28;20179;-81
2023/02/09 10:34:41;;;;;;;2.83;2.63;;;4.20;99.90;;;;;;5048898;28;20268;-82
2023/02/09 10:37:42;;;;;;;5.13;4.37;;;4.20;99.90;;;;;;5049716;28;20197;-83
2023/02/09 10:40:25;;;;;;;5.97;3.83;;;4.30;99.90;;;;;;5049931;28;20206;-83
2023/02/09 10:42:57;;;;;;;5.50;3.10;;;4.50;99.90;;;;;;5048835;28;20202;-82
2023/02/09 10:45:38;;;;;;;2.67;2.57;;;4.50;99.90;;;;;;5049647;28;20269;-89
2023/02/09 10:48:13;;;;;;;6.20;4.07;;;4.60;99.90;;;;;;5048318;28;20245;-82
2023/02/09 10:51:05;;;;;;;5.10;4.03;;;4.80;99.90;;;;;;5048625;28;20181;-81
2023/02/09 10:53:54;;;;;;;4.40;3.93;;;5.00;99.90;;;;;;5043370;28;20343;-82
2023/02/09 10:56:23;;;;;;;5.13;4.03;;;5.20;99.90;;;;;;5047933;28;20208;-83
2023/02/09 10:58:59;;;;;;;5.03;4.57;;;5.20;99.90;;;;;;5049441;28;20170;-85
2023/02/09 11:01:30;;;;;;;3.00;2.80;;;5.10;99.90;;;;;;5048207;28;20206;-85
2023/02/09 11:04:02;;;;;;;4.33;3.93;;;5.10;99.90;;;;;;5049510;28;20265;-85
2023/02/09 11:06:39;;;;;;;11.60;6.00;;;5.20;99.90;;;;;;5049316;28;20327;-81
2023/02/09 11:09:15;;;;;;;6.43;4.23;;;5.30;99.90;;;;;;5048116;28;20170;-84
2023/02/09 11:11:43;;;;;;;8.33;6.43;;;5.30;99.90;;;;;;5049260;28;20252;-85
2023/02/09 11:14:19;;;;;;;5.40;4.37;;;5.40;99.90;;;;;;5062474;28;20232;-81
2023/02/09 11:17:18;;;;;;;5.63;5.30;;;5.40;99.90;;;;;;5050256;28;20173;-83
2023/02/09 11:19:53;;;;;;;8.67;4.60;;;5.40;99.90;;;;;;5051303;28;20192;-88
2023/02/09 11:22:54;;;;;;;6.17;4.27;;;5.40;99.90;;;;;;5068879;28;20358;-87
2023/02/09 11:25:27;;;;;;;4.87;4.60;;;5.40;99.90;;;;;;5045798;28;20235;-91
2023/02/09 11:28:19;;;;;;;7.37;4.03;;;5.40;99.90;;;;;;5050761;28;20213;-82
2023/02/09 11:31:06;;;;;;;4.50;4.13;;;5.30;99.90;;;;;;5069076;28;20193;-84
2023/02/09 11:33:50;;;;;;;6.17;3.87;;;5.30;99.90;;;;;;5068622;28;20196;-83
2023/02/09 11:36:45;;;;;;;6.90;4.57;;;5.30;99.90;;;;;;5068685;28;20235;-86
2023/02/09 11:39:51;;;;;;;8.27;4.30;;;5.30;99.90;;;;;;5051138;28;20174;-83
2023/02/09 11:45:20;;;;;;;8.63;5.00;;;5.30;99.90;;;;;;5068383;28;20543;-86
2023/02/09 11:48:01;;;;;;;6.77;5.63;;;5.40;99.90;;;;;;5068548;28;20197;-93
2023/02/09 11:50:50;;;;;;;9.93;5.10;;;5.50;99.90;;;;;;5050522;28;20174;-83
2023/02/09 11:53:41;;;;;;;4.53;3.90;;;5.50;99.90;;;;;;5050474;28;20256;-82
2023/02/09 11:56:18;;;;;;;7.77;5.53;;;5.40;99.90;;;;;;5050691;28;20451;-84
2023/02/09 11:59:17;;;;;;;15.47;5.83;;;5.40;99.90;;;;;;5050880;28;20169;-88
2023/02/09 12:01:58;;;;;;;5.30;4.87;;;5.60;99.90;;;;;;5050604;28;20182;-82
2023/02/09 12:04:42;;;;;;;21.27;12.17;;;5.60;99.90;;;;;;5050395;28;20172;-83
2023/02/09 12:07:23;;;;;;;10.23;6.17;;;5.70;99.90;;;;;;5068357;28;20193;-82
2023/02/09 12:10:17;;;;;;;10.57;5.20;;;5.70;99.90;;;;;;5068888;28;20184;-90
2023/02/09 12:12:58;;;;;;;10.93;6.27;;;5.80;99.90;;;;;;5050223;28;20205;-91
2023/02/09 12:15:42;;;;;;;7.13;4.67;;;5.80;99.90;;;;;;5050679;28;20213;-84
2023/02/09 12:18:21;;;;;;;6.20;5.67;;;5.90;99.90;;;;;;5050645;28;20658;-82
2023/02/09 12:20:51;;;;;;;9.10;6.47;;;6.00;99.90;;;;;;5068372;28;20173;-85
2023/02/09 12:23:17;;;;;;;5.93;5.40;;;6.00;99.90;;;;;;5068072;28;20639;-86
2023/02/09 12:25:48;;;;;;;6.43;4.47;;;6.10;99.90;;;;;;5068459;28;20190;-82
2023/02/09 12:28:26;;;;;;;5.33;4.83;;;6.10;99.90;;;;;;5068823;28;20272;-86
2023/02/09 12:30:52;;;;;;;7.20;3.37;;;6.30;99.90;;;;;;5072407;28;20203;-86
2023/02/09 12:33:32;;;;;;;8.27;5.30;;;6.40;99.90;;;;;;5072234;28;20181;-84
2023/02/09 12:36:06;;;;;;;5.93;4.53;;;6.40;99.90;;;;;;5072548;28;20172;-82
2023/02/09 12:38:47;;;;;;;5.63;5.10;;;6.50;99.90;;;;;;5054103;28;20650;-83
2023/02/09 12:41:13;;;;;;;4.20;3.90;;;6.40;99.90;;;;;;5053914;28;20197;-88
2023/02/09 12:43:40;;;;;;;6.17;4.10;;;6.30;99.90;;;;;;5054331;28;20217;-82
2023/02/09 12:46:14;;;;;;;5.63;5.13;;;6.30;99.90;;;;;;5053562;28;20226;-91
2023/02/09 12:49:08;;;;;;;7.20;5.07;;;6.20;99.90;;;;;;5071975;28;20197;-82
2023/02/09 12:51:49;;;;;;;5.83;4.30;;;6.20;99.90;;;;;;5071797;28;20307;-85
2023/02/09 12:54:39;;;;;;;4.77;4.30;;;6.10;99.90;;;;;;5071433;28;20599;-88
2023/02/09 12:57:13;;;;;;;4.97;4.67;;;6.10;99.90;;;;;;5071903;28;20177;-89
2023/02/09 12:59:40;;;;;;;3.70;3.50;;;6.10;99.90;;;;;;5071478;28;20707;-84
2023/02/09 13:02:06;;;;;;;8.67;4.03;;;6.00;99.90;;;;;;5036890;28;20284;-82
2023/02/09 13:04:47;;;;;;;5.33;4.70;;;5.90;99.90;;;;;;5053356;28;20268;-84
2023/02/09 13:07:36;;;;;;;6.80;6.20;;;5.90;99.90;;;;;;5071241;28;20162;-85
2023/02/09 13:10:15;;;;;;;12.07;4.67;;;5.90;99.90;;;;;;5071777;28;20154;-85
2023/02/09 13:12:47;;;;;;;6.73;5.47;;;5.80;99.90;;;;;;5071517;28;20168;-85
2023/02/09 13:15:16;;;;;;;5.07;4.50;;;5.80;99.90;;;;;;5067088;28;20237;-89
2023/02/09 13:17:55;;;;;;;7.40;4.67;;;5.80;99.90;;;;;;5071273;28;20224;-83
2023/02/09 13:20:38;;;;;;;7.07;3.40;;;5.80;99.90;;;;;;5053269;28;20169;-86
2023/02/09 13:23:25;;;;;;;9.03;4.60;;;5.80;99.90;;;;;;5071421;28;20165;-83
2023/02/09 13:25:59;;;;;;;5.03;4.07;;;5.80;99.90;;;;;;5071344;28;20227;-86